createdAt,value
2023-01-28T00:02:03.446Z,25.97
2023-01-28T00:04:32.684Z,23.10
2023-01-28T00:07:01.813Z,22.73
2023-01-28T00:09:31.086Z,23.27
2023-01-28T00:12:00.604Z,22.03
2023-01-28T00:14:30.325Z,20.37
2023-01-28T00:16:59.486Z,20.33
2023-01-28T00:19:30.195Z,19.53
2023-01-28T00:21:59.415Z,20.03
2023-01-28T00:24:28.681Z,20.77
2023-01-28T00:26:58.191Z,20.57
2023-01-28T00:29:27.447Z,19.87
2023-01-28T00:31:56.797Z,22.93
2023-01-28T00:34:26.052Z,19.83
2023-01-28T00:36:58.816Z,20.70
2023-01-28T00:39:28.884Z,20.53
2023-01-28T00:41:58.055Z,21.67
2023-01-28T00:44:27.560Z,22.77
2023-01-28T00:46:56.904Z,21.13
2023-01-28T00:49:26.833Z,21.83
2023-01-28T00:51:57.483Z,25.00
2023-01-28T00:54:26.824Z,23.23
2023-01-28T00:56:56.067Z,22.83
2023-01-28T00:59:25.445Z,22.53
2023-01-28T01:01:54.722Z,22.87
2023-01-28T01:04:35.659Z,22.03
2023-01-28T01:07:07.145Z,21.80
2023-01-28T01:09:36.383Z,30.00
2023-01-28T01:12:05.853Z,26.60
2023-01-28T01:14:35.202Z,23.27
2023-01-28T01:17:04.403Z,21.60
2023-01-28T01:19:33.653Z,22.13
2023-01-28T01:22:02.908Z,22.17
2023-01-28T01:24:34.351Z,23.47
2023-01-28T01:27:03.645Z,24.10
2023-01-28T01:29:34.114Z,22.70
2023-01-28T01:32:03.390Z,26.87
2023-01-28T01:34:32.754Z,22.77
2023-01-28T01:37:01.983Z,21.70
2023-01-28T01:39:32.753Z,22.03
2023-01-28T01:42:02.323Z,21.20
2023-01-28T01:44:58.313Z,21.77
2023-01-28T01:47:33.663Z,22.13
2023-01-28T01:50:06.902Z,21.30
2023-01-28T01:52:37.942Z,20.23
2023-01-28T01:55:14.990Z,22.57
2023-01-28T01:57:46.044Z,21.87
2023-01-28T02:00:15.753Z,24.80
2023-01-28T02:02:49.319Z,20.77
2023-01-28T02:05:21.564Z,22.57
2023-01-28T02:08:16.503Z,22.13
2023-01-28T02:10:50.640Z,21.73
2023-01-28T02:13:27.825Z,22.70
2023-01-28T02:15:57.712Z,23.80
2023-01-28T02:18:27.057Z,21.70
2023-01-28T02:21:17.011Z,21.07
2023-01-28T02:24:10.483Z,20.43
2023-01-28T02:26:59.103Z,21.10
2023-01-28T02:29:34.597Z,21.20
2023-01-28T02:32:10.682Z,21.87
2023-01-28T02:34:46.261Z,20.20
2023-01-28T02:37:19.333Z,20.37
2023-01-28T02:39:52.887Z,21.63
2023-01-28T02:42:29.045Z,20.30
2023-01-28T02:44:59.903Z,20.80
2023-01-28T02:47:46.509Z,21.27
2023-01-28T02:50:18.773Z,21.63
2023-01-28T02:53:15.549Z,23.60
2023-01-28T02:55:54.006Z,20.33
2023-01-28T02:58:33.891Z,21.30
2023-01-28T03:01:12.595Z,20.37
2023-01-28T03:03:52.083Z,19.93
2023-01-28T03:06:26.081Z,20.37
2023-01-28T03:09:15.263Z,18.97
2023-01-28T03:12:05.023Z,20.17
2023-01-28T03:14:54.437Z,20.17
2023-01-28T03:17:47.656Z,19.17
2023-01-28T03:20:35.132Z,19.63
2023-01-28T03:23:29.001Z,18.67
2023-01-28T03:26:19.515Z,22.17
2023-01-28T03:29:08.584Z,18.03
2023-01-28T03:31:56.372Z,19.20
2023-01-28T03:34:45.163Z,18.83
2023-01-28T03:37:15.906Z,20.63
2023-01-28T03:40:07.541Z,18.97
2023-01-28T03:42:36.845Z,19.03
2023-01-28T03:45:14.673Z,18.67
2023-01-28T03:47:44.933Z,19.20
2023-01-28T03:50:15.993Z,20.93
2023-01-28T03:52:54.741Z,19.60
2023-01-28T03:55:28.654Z,19.10
2023-01-28T03:57:57.854Z,18.10
2023-01-28T04:00:26.940Z,18.67
2023-01-28T04:02:57.817Z,19.43
2023-01-28T04:05:28.791Z,19.07
2023-01-28T04:08:02.642Z,17.97
2023-01-28T04:10:47.636Z,18.57
2023-01-28T04:13:24.703Z,17.87
2023-01-28T04:15:54.878Z,18.97
2023-01-28T04:18:27.643Z,19.87
2023-01-28T04:21:00.991Z,17.73
2023-01-28T04:23:31.856Z,19.13
2023-01-28T04:26:01.572Z,18.80
2023-01-28T04:28:31.312Z,18.27
2023-01-28T04:31:01.519Z,17.93
2023-01-28T04:33:49.502Z,16.87
2023-01-28T04:36:41.074Z,19.03
2023-01-28T04:39:45.547Z,28.93
2023-01-28T04:42:19.917Z,32.10
2023-01-28T04:45:10.570Z,27.17
2023-01-28T04:48:02.912Z,24.03
2023-01-28T04:50:54.963Z,22.50
2023-01-28T04:53:41.368Z,20.40
2023-01-28T04:56:26.279Z,19.83
2023-01-28T04:58:55.877Z,19.13
2023-01-28T05:01:26.304Z,21.20
2023-01-28T05:03:56.144Z,17.80
2023-01-28T05:06:29.801Z,17.57
2023-01-28T05:09:03.791Z,18.27
2023-01-28T05:11:33.042Z,19.00
2023-01-28T05:14:06.560Z,17.97
2023-01-28T05:16:42.774Z,18.37
2023-01-28T05:19:13.581Z,18.87
2023-01-28T05:21:45.003Z,18.23
2023-01-28T05:24:30.479Z,17.83
2023-01-28T05:26:59.887Z,19.00
2023-01-28T05:29:29.473Z,19.43
2023-01-28T05:31:58.755Z,18.27
2023-01-28T05:34:28.426Z,18.43
2023-01-28T05:36:58.793Z,18.83
2023-01-28T05:39:40.244Z,18.87
2023-01-28T05:42:11.233Z,18.23
2023-01-28T05:44:46.245Z,20.17
2023-01-28T05:47:25.083Z,19.63
2023-01-28T05:50:16.007Z,20.80
2023-01-28T05:52:47.074Z,19.13
2023-01-28T05:55:27.022Z,18.13
2023-01-28T05:57:56.555Z,18.87
2023-01-28T06:00:28.411Z,16.93
2023-01-28T06:02:58.046Z,16.97
2023-01-28T06:05:28.824Z,17.70
2023-01-28T06:07:58.154Z,17.17
2023-01-28T06:10:30.376Z,17.23
2023-01-28T06:12:59.688Z,19.47
2023-01-28T06:15:47.199Z,18.27
2023-01-28T06:18:34.736Z,18.50
2023-01-28T06:21:04.252Z,19.57
2023-01-28T06:23:33.474Z,19.50
2023-01-28T06:26:05.364Z,18.80
2023-01-28T06:28:34.791Z,20.83
2023-01-28T06:31:04.134Z,19.63
2023-01-28T06:33:34.083Z,17.50
2023-01-28T06:36:05.083Z,18.40
2023-01-28T06:38:34.659Z,19.13
2023-01-28T06:41:05.567Z,18.60
2023-01-28T06:43:34.776Z,23.27
2023-01-28T06:46:04.142Z,18.37
2023-01-28T06:48:33.340Z,21.27
2023-01-28T06:51:02.618Z,30.63
2023-01-28T06:53:31.872Z,41.50
2023-01-28T06:56:01.133Z,75.40
2023-01-28T06:58:31.882Z,36.87
2023-01-28T07:01:01.064Z,28.17
2023-01-28T07:03:30.362Z,21.13
2023-01-28T07:05:59.604Z,22.33
2023-01-28T07:08:28.834Z,25.07
2023-01-28T07:10:58.140Z,23.43
2023-01-28T07:13:27.419Z,24.20
2023-01-28T07:15:58.174Z,24.03
2023-01-28T07:18:27.443Z,24.40
2023-01-28T07:20:56.761Z,24.47
2023-01-28T07:23:28.252Z,24.43
2023-01-28T07:26:02.275Z,25.20
2023-01-28T07:28:31.623Z,23.70
2023-01-28T07:31:02.282Z,22.57
2023-01-28T07:33:31.635Z,25.07
2023-01-28T07:36:00.833Z,23.80
2023-01-28T07:38:29.970Z,25.10
2023-01-28T07:40:59.165Z,27.87
2023-01-28T07:43:28.365Z,25.20
2023-01-28T07:45:57.503Z,26.90
2023-01-28T07:48:28.153Z,26.23
2023-01-28T07:51:00.910Z,36.53
2023-01-28T07:53:30.144Z,26.17
2023-01-28T07:56:03.266Z,27.30
2023-01-28T07:58:32.876Z,35.40
2023-01-28T08:01:02.654Z,27.13
2023-01-28T08:03:33.280Z,24.63
2023-01-28T08:06:02.400Z,26.40
2023-01-28T08:08:31.622Z,29.77
2023-01-28T08:11:01.031Z,27.07
2023-01-28T08:13:30.286Z,25.07
2023-01-28T08:15:59.762Z,28.97
2023-01-28T08:18:29.001Z,23.57
2023-01-28T08:21:00.821Z,24.80
2023-01-28T08:23:30.645Z,24.07
2023-01-28T08:26:00.834Z,21.67
2023-01-28T08:28:29.993Z,21.97
2023-01-28T08:31:02.430Z,22.70
2023-01-28T08:33:31.773Z,24.93
2023-01-28T08:36:05.052Z,16.00
2023-01-28T08:38:34.383Z,14.77
2023-01-28T08:41:03.492Z,15.03
2023-01-28T08:43:32.631Z,14.43
2023-01-28T08:46:01.835Z,16.50
2023-01-28T08:48:31.122Z,16.57
2023-01-28T08:51:02.171Z,15.23
2023-01-28T08:53:31.333Z,16.83
2023-01-28T08:56:00.495Z,13.90
2023-01-28T08:58:29.707Z,14.57
2023-01-28T09:00:59.272Z,12.83
2023-01-28T09:03:28.514Z,12.90
2023-01-28T09:06:03.708Z,13.20
2023-01-28T09:08:33.157Z,13.23
2023-01-28T09:11:02.706Z,14.13
2023-01-28T09:13:31.856Z,15.97
2023-01-28T09:16:01.003Z,15.43
2023-01-28T09:18:30.244Z,16.20
2023-01-28T09:20:59.269Z,15.03
2023-01-28T09:23:29.883Z,14.43
2023-01-28T09:26:02.612Z,13.60
2023-01-28T09:28:31.952Z,15.37
2023-01-28T09:31:05.091Z,15.50
2023-01-28T09:33:34.236Z,14.00
2023-01-28T09:36:04.215Z,15.67
2023-01-28T09:38:36.614Z,15.40
2023-01-28T09:41:22.495Z,15.60
2023-01-28T09:44:06.572Z,14.57
2023-01-28T09:46:38.218Z,17.30
2023-01-28T09:49:19.428Z,15.73
2023-01-28T09:51:54.020Z,15.17
2023-01-28T09:54:37.945Z,15.90
2023-01-28T09:57:13.720Z,13.97
2023-01-28T09:59:42.948Z,15.90
2023-01-28T10:02:37.403Z,14.23
2023-01-28T10:05:20.629Z,15.40
2023-01-28T10:07:58.993Z,14.50
2023-01-28T10:10:35.062Z,14.67
2023-01-28T10:13:19.643Z,14.97
2023-01-28T10:16:01.571Z,15.83
2023-01-28T10:18:37.696Z,15.20
2023-01-28T10:21:17.136Z,15.20
2023-01-28T10:23:58.833Z,12.40
2023-01-28T10:26:35.540Z,11.90
2023-01-28T10:29:12.657Z,12.80
2023-01-28T10:31:49.141Z,14.10
2023-01-28T10:34:20.148Z,15.33
2023-01-28T10:36:49.820Z,11.60
2023-01-28T10:39:21.859Z,14.77
2023-01-28T10:41:58.372Z,13.30
2023-01-28T10:44:36.482Z,13.20
2023-01-28T10:47:12.751Z,13.03
2023-01-28T10:49:47.742Z,14.23
2023-01-28T10:52:18.746Z,13.83
2023-01-28T10:54:47.912Z,13.40
2023-01-28T10:57:23.010Z,13.53
2023-01-28T10:59:52.223Z,16.83
2023-01-28T11:02:32.700Z,16.10
2023-01-28T11:05:17.860Z,14.30
2023-01-28T11:07:48.685Z,15.53
2023-01-28T11:10:28.566Z,13.97
2023-01-28T11:13:00.151Z,15.67
2023-01-28T11:15:29.651Z,13.87
2023-01-28T11:18:02.580Z,16.00
2023-01-28T11:20:43.485Z,13.10
2023-01-28T11:23:21.140Z,13.77
2023-01-28T11:25:50.481Z,12.33
2023-01-28T11:28:23.921Z,12.97
2023-01-28T11:30:54.770Z,12.93
2023-01-28T11:33:26.583Z,17.50
2023-01-28T11:35:57.583Z,13.97
2023-01-28T11:38:28.273Z,14.93
2023-01-28T11:40:59.126Z,36.60
2023-01-28T11:43:32.756Z,15.40
2023-01-28T11:46:16.844Z,13.53
2023-01-28T11:48:59.662Z,11.47
2023-01-28T11:51:39.876Z,12.40
2023-01-28T11:54:23.355Z,13.50
2023-01-28T11:57:07.736Z,14.47
2023-01-28T11:59:55.662Z,17.77
2023-01-28T12:02:45.239Z,19.47
2023-01-28T12:05:47.687Z,17.30
2023-01-28T12:08:25.132Z,13.90
2023-01-28T12:11:10.914Z,15.80
2023-01-28T12:13:57.327Z,14.10
2023-01-28T12:16:42.276Z,14.77
2023-01-28T12:19:45.677Z,13.80
2023-01-28T12:22:33.937Z,14.87
2023-01-28T12:25:21.068Z,15.23
2023-01-28T12:27:57.432Z,14.00
2023-01-28T12:30:38.823Z,13.50
2023-01-28T12:33:30.831Z,13.17
2023-01-28T12:36:10.630Z,13.17
2023-01-28T12:38:50.486Z,13.10
2023-01-28T12:41:23.846Z,12.27
2023-01-28T12:44:00.498Z,13.00
2023-01-28T12:46:40.747Z,11.53
2023-01-28T12:49:18.613Z,14.50
2023-01-28T12:51:58.864Z,12.57
2023-01-28T12:54:35.605Z,10.90
2023-01-28T12:57:05.436Z,10.77
2023-01-28T12:59:41.100Z,11.67
2023-01-28T13:02:23.769Z,11.97
2023-01-28T13:05:03.834Z,10.47
2023-01-28T13:07:40.057Z,10.23
2023-01-28T13:10:19.299Z,10.10
2023-01-28T13:12:49.958Z,9.70
2023-01-28T13:15:21.508Z,9.23
2023-01-28T13:17:59.030Z,9.33
2023-01-28T13:20:50.299Z,10.17
2023-01-28T13:23:27.450Z,10.10
2023-01-28T13:25:58.776Z,10.60
2023-01-28T13:28:30.876Z,9.47
2023-01-28T13:31:05.171Z,11.93
2023-01-28T13:33:36.293Z,10.40
2023-01-28T13:36:20.401Z,11.03
2023-01-28T13:38:50.735Z,9.73
2023-01-28T13:41:20.583Z,9.30
2023-01-28T13:43:49.861Z,9.47
2023-01-28T13:46:30.335Z,8.83
2023-01-28T13:49:03.486Z,9.07
2023-01-28T13:51:36.821Z,8.70
2023-01-28T13:54:09.329Z,8.63
2023-01-28T13:56:51.418Z,9.27
2023-01-28T13:59:47.424Z,9.20
2023-01-28T14:02:37.209Z,8.70
2023-01-28T14:05:39.732Z,9.93
2023-01-28T14:08:34.948Z,8.97
2023-01-28T14:11:38.422Z,8.53
2023-01-28T14:14:41.808Z,8.83
2023-01-28T14:17:21.800Z,9.50
2023-01-28T14:19:53.762Z,7.50
2023-01-28T14:22:23.469Z,8.33
2023-01-28T14:24:55.030Z,7.57
2023-01-28T14:27:28.971Z,7.47
2023-01-28T14:30:10.109Z,7.73
2023-01-28T14:32:46.653Z,7.90
2023-01-28T14:35:21.019Z,7.80
2023-01-28T14:37:50.386Z,7.77
2023-01-28T14:40:22.832Z,8.10
2023-01-28T14:42:54.832Z,8.20
2023-01-28T14:45:46.944Z,7.60
2023-01-28T14:48:27.797Z,7.90
2023-01-28T14:51:29.469Z,8.00
2023-01-28T14:54:25.131Z,7.80
2023-01-28T14:57:13.952Z,8.90
2023-01-28T14:59:48.559Z,8.20
2023-01-28T15:02:23.465Z,8.17
2023-01-28T15:04:54.030Z,8.70
2023-01-28T15:07:25.151Z,9.13
2023-01-28T15:10:04.039Z,10.60
2023-01-28T15:12:39.223Z,8.37
2023-01-28T15:15:13.756Z,8.53
2023-01-28T15:17:43.247Z,8.43
2023-01-28T15:20:20.644Z,8.40
2023-01-28T15:22:50.271Z,10.20
2023-01-28T15:25:22.049Z,8.57
2023-01-28T15:27:54.784Z,9.80
2023-01-28T15:30:26.940Z,9.40
2023-01-28T15:33:01.053Z,11.87
2023-01-28T15:35:30.660Z,9.37
2023-01-28T15:37:59.990Z,10.03
2023-01-28T15:40:30.469Z,9.57
2023-01-28T15:43:01.174Z,9.70
2023-01-28T15:45:31.257Z,12.13
2023-01-28T15:48:09.140Z,10.27
2023-01-28T15:50:38.685Z,10.90
2023-01-28T15:53:11.384Z,10.10
2023-01-28T15:55:43.041Z,10.40
2023-01-28T15:58:33.822Z,11.23
2023-01-28T16:01:15.999Z,11.30
2023-01-28T16:03:47.642Z,12.30
2023-01-28T16:06:20.264Z,14.10
2023-01-28T16:08:54.858Z,13.60
2023-01-28T16:11:26.368Z,12.00
2023-01-28T16:13:57.721Z,12.50
2023-01-28T16:16:32.805Z,13.13
2023-01-28T16:19:04.285Z,13.20
2023-01-28T16:21:38.168Z,13.37
2023-01-28T16:24:21.625Z,14.33
2023-01-28T16:26:58.950Z,16.40
2023-01-28T16:29:31.121Z,15.50
2023-01-28T16:32:01.555Z,17.53
2023-01-28T16:34:30.977Z,20.47
2023-01-28T16:37:02.004Z,17.37
2023-01-28T16:39:31.856Z,16.63
2023-01-28T16:42:02.339Z,21.13
2023-01-28T16:44:33.160Z,17.27
2023-01-28T16:47:03.243Z,19.83
2023-01-28T16:49:32.660Z,15.13
2023-01-28T16:52:02.872Z,15.33
2023-01-28T16:54:32.409Z,16.17
2023-01-28T16:57:02.307Z,16.70
2023-01-28T16:59:33.057Z,14.60
2023-01-28T17:02:02.425Z,16.77
2023-01-28T17:04:31.686Z,16.40
2023-01-28T17:07:02.439Z,16.60
2023-01-28T17:09:32.141Z,19.43
2023-01-28T17:12:02.143Z,18.60
2023-01-28T17:14:33.751Z,20.03
2023-01-28T17:17:03.093Z,23.30
2023-01-28T17:19:32.605Z,20.67
2023-01-28T17:22:02.010Z,24.07
2023-01-28T17:24:32.026Z,24.77
2023-01-28T17:27:01.319Z,25.47
2023-01-28T17:29:30.643Z,29.07
2023-01-28T17:32:01.601Z,27.93
2023-01-28T17:34:31.669Z,30.20
2023-01-28T17:37:00.880Z,27.03
2023-01-28T17:39:30.260Z,28.33
2023-01-28T17:42:00.473Z,31.80
2023-01-28T17:44:29.820Z,30.60
2023-01-28T17:47:00.668Z,27.90
2023-01-28T17:49:30.196Z,29.70
2023-01-28T17:51:59.538Z,30.00
2023-01-28T17:54:29.253Z,30.83
2023-01-28T17:56:58.719Z,31.73
2023-01-28T17:59:28.129Z,29.50
2023-01-28T18:01:57.561Z,30.53
2023-01-28T18:04:28.409Z,29.73
2023-01-28T18:06:57.715Z,30.07
2023-01-28T18:09:26.910Z,29.43
2023-01-28T18:11:56.339Z,28.50
2023-01-28T18:14:25.760Z,29.00
2023-01-28T18:16:56.379Z,28.70
2023-01-28T18:19:25.740Z,35.77
2023-01-28T18:21:56.803Z,33.07
2023-01-28T18:24:29.149Z,31.57
2023-01-28T18:27:00.244Z,29.50
2023-01-28T18:29:31.233Z,31.00
2023-01-28T18:32:01.400Z,32.73
2023-01-28T18:34:31.997Z,33.37
2023-01-28T18:37:03.848Z,38.33
2023-01-28T18:39:33.213Z,38.97
2023-01-28T18:42:02.568Z,41.33
2023-01-28T18:44:32.523Z,41.40
2023-01-28T18:47:01.871Z,43.20
2023-01-28T18:49:31.227Z,41.83
2023-01-28T18:52:01.989Z,46.00
2023-01-28T18:54:31.350Z,60.63
2023-01-28T18:57:00.602Z,53.20
2023-01-28T18:59:30.610Z,51.10
2023-01-28T19:02:00.030Z,43.67
2023-01-28T19:04:29.330Z,45.73
2023-01-28T19:06:58.981Z,62.10
2023-01-28T19:09:29.712Z,47.67
2023-01-28T19:11:59.163Z,48.37
2023-01-28T19:14:28.422Z,48.23
2023-01-28T19:16:57.650Z,49.03
2023-01-28T19:19:27.063Z,45.40
2023-01-28T19:21:56.423Z,51.93
2023-01-28T19:24:25.742Z,52.80
2023-01-28T19:26:56.544Z,47.90
2023-01-28T19:29:28.734Z,43.80
2023-01-28T19:31:58.170Z,44.57
2023-01-28T19:34:27.630Z,40.97
2023-01-28T19:36:58.001Z,38.60
2023-01-28T19:39:27.351Z,39.37
2023-01-28T19:41:57.945Z,40.40
2023-01-28T19:44:27.399Z,44.83
2023-01-28T19:46:56.923Z,47.23
2023-01-28T19:49:26.260Z,49.60
2023-01-28T19:51:55.552Z,46.97
2023-01-28T19:54:24.960Z,43.93
2023-01-28T19:56:54.201Z,38.10
2023-01-28T19:59:25.249Z,38.73
2023-01-28T20:01:54.618Z,35.93
2023-01-28T20:04:24.022Z,37.83
2023-01-28T20:06:53.202Z,39.20
2023-01-28T20:09:23.454Z,38.77
2023-01-28T20:11:52.710Z,39.73
2023-01-28T20:14:22.343Z,45.23
2023-01-28T20:16:53.105Z,55.70
2023-01-28T20:19:22.401Z,58.23
2023-01-28T20:21:53.664Z,47.63
2023-01-28T20:24:23.129Z,42.30
2023-01-28T20:26:52.392Z,38.47
2023-01-28T20:29:22.731Z,34.80
2023-01-28T20:32:13.720Z,32.23
2023-01-28T20:34:44.961Z,33.47
2023-01-28T20:37:14.172Z,30.53
2023-01-28T20:39:43.983Z,32.97
2023-01-28T20:42:13.691Z,37.13
2023-01-28T20:44:42.942Z,37.17
2023-01-28T20:47:13.757Z,42.53
2023-01-28T20:49:43.088Z,40.63
2023-01-28T20:52:12.282Z,32.53
2023-01-28T20:54:41.560Z,30.60
2023-01-28T20:57:10.815Z,31.43
2023-01-28T20:59:40.030Z,35.80
2023-01-28T21:02:10.472Z,31.57
2023-01-28T21:04:41.174Z,34.63
2023-01-28T21:07:13.003Z,32.60
2023-01-28T21:09:42.422Z,32.00
2023-01-28T21:12:11.605Z,39.13
2023-01-28T21:14:40.830Z,35.00
2023-01-28T21:17:10.360Z,38.40
2023-01-28T21:19:41.158Z,37.33
2023-01-28T21:22:10.704Z,37.60
2023-01-28T21:24:39.943Z,37.00
2023-01-28T21:27:09.149Z,36.80
2023-01-28T21:29:38.487Z,33.47
2023-01-28T21:32:07.703Z,32.83
2023-01-28T21:34:37.330Z,32.30
2023-01-28T21:37:10.411Z,33.17
2023-01-28T21:39:39.565Z,33.47
2023-01-28T21:42:08.882Z,32.27
2023-01-28T21:44:38.158Z,31.80
2023-01-28T21:47:07.392Z,30.63
2023-01-28T21:49:36.640Z,31.87
2023-01-28T21:52:08.001Z,29.20
2023-01-28T21:54:37.362Z,30.67
2023-01-28T21:57:06.468Z,29.20
2023-01-28T21:59:38.469Z,29.20
2023-01-28T22:02:11.158Z,29.60
2023-01-28T22:04:41.887Z,33.37
2023-01-28T22:07:17.404Z,32.63
2023-01-28T22:09:47.468Z,30.40
2023-01-28T22:12:17.335Z,33.37
2023-01-28T22:14:48.375Z,31.07
2023-01-28T22:17:19.468Z,29.17
2023-01-28T22:19:49.415Z,30.63
2023-01-28T22:22:20.256Z,31.87
2023-01-28T22:24:49.571Z,34.43
2023-01-28T22:27:21.571Z,30.33
2023-01-28T22:29:50.819Z,30.07
2023-01-28T22:32:19.980Z,32.17
2023-01-28T22:34:49.948Z,30.13
2023-01-28T22:37:20.652Z,30.00
2023-01-28T22:39:49.925Z,31.07
2023-01-28T22:42:19.033Z,35.67
2023-01-28T22:44:48.195Z,31.80
2023-01-28T22:47:17.407Z,31.97
2023-01-28T22:49:46.547Z,31.47
2023-01-28T22:52:15.759Z,29.13
2023-01-28T22:54:48.061Z,29.70
2023-01-28T22:57:17.229Z,31.87
2023-01-28T22:59:59.527Z,28.23
2023-01-28T23:02:29.373Z,27.97
2023-01-28T23:04:58.632Z,27.20
2023-01-28T23:07:27.730Z,28.13
2023-01-28T23:09:58.381Z,26.90
2023-01-28T23:12:27.768Z,25.53
2023-01-28T23:15:14.071Z,26.80
2023-01-28T23:18:00.282Z,26.23
2023-01-28T23:20:47.588Z,28.30
2023-01-28T23:23:36.322Z,25.97
2023-01-28T23:26:07.268Z,25.33
2023-01-28T23:28:36.533Z,28.17
2023-01-28T23:31:07.384Z,30.17
2023-01-28T23:33:37.243Z,25.60
2023-01-28T23:36:07.060Z,25.40
2023-01-28T23:38:36.229Z,25.93
2023-01-28T23:41:06.989Z,26.97
2023-01-28T23:43:36.147Z,25.50
2023-01-28T23:46:05.419Z,25.90
2023-01-28T23:48:34.593Z,23.50
2023-01-28T23:51:03.798Z,24.77
2023-01-28T23:53:32.986Z,23.87
2023-01-28T23:56:02.158Z,25.73
2023-01-28T23:58:43.214Z,24.30
